Latest Weather Observations for Legendre Island

IDW60801

Issued at 5:33 pm WST Sunday 20 August 2017 (issued every 30 minutes, with the page automatically refreshed every 10 minutes)

About weather observations | Map of weather stations | Latest weather observations for WA | Other Formats
Station Details ID: 004095 Name: LEGENDRE ISLAND Lat: -20.36 Lon: 116.84 Height: 29.0 m
Data from the previous 72 hours. | See also: Recent months at Legendre Island
Date/Time
WST
Temp
°C
App
Temp
°C
Dew
Point
°C
Rel
Hum
%
Delta-T
°C
Wind Press
QNH
hPa
Press
MSL
hPa
Rain since
9am
mm
Dir  Spd
km/h
Gust
km/h
Spd
kts
Gust
kts
20/05:30pm 24.6 25.0 18.1 67 4.1 NNE 13 15 7 8 1012.9 1012.8 -
20/05:00pm 25.2 25.7 17.4 62 4.9 NNE 11 13 6 7 1012.7 1012.6 -
20/04:30pm 25.4 25.7 16.0 56 5.7 NNE 9 11 5 6 1012.6 1012.5 -
20/04:00pm 26.3 26.1 15.7 52 6.5 NE 11 13 6 7 1012.6 1012.5 -
20/03:30pm 25.9 25.8 15.0 51 6.6 ENE 9 11 5 6 1012.8 1012.7 -
20/03:00pm 26.3 26.1 14.7 48 7.0 E 9 9 5 5 1013.1 1013.0 -
20/02:30pm 26.9 25.9 14.6 46 7.4 E 13 15 7 8 1013.3 1013.2 -
20/02:00pm 26.8 25.7 15.2 49 7.0 E 15 17 8 9 1013.7 1013.6 -
20/01:30pm 27.2 25.6 14.9 47 7.4 E 17 20 9 11 1014.2 1014.1 -
20/01:00pm 26.4 23.5 12.8 43 7.9 E 20 24 11 13 1014.5 1014.4 -
20/12:30pm 26.5 23.6 13.9 45 7.5 E 22 26 12 14 1014.9 1014.8 -
20/12:00pm 26.5 22.6 12.2 41 8.2 ESE 24 28 13 15 1015.5 1015.3 -
20/11:30am 26.0 20.9 10.6 38 8.6 ESE 28 30 15 16 1016.2 1016.0 -
20/11:00am 26.1 21.5 12.2 42 8.0 ESE 28 33 15 18 1016.4 1016.2 -
20/10:30am 25.2 20.1 10.6 40 8.1 ESE 28 32 15 17 1016.6 1016.4 -
20/10:00am 25.6 21.6 10.6 39 8.4 ESE 22 28 12 15 1016.9 1016.7 -
20/09:30am 25.5 22.2 9.7 37 8.7 SSE 17 24 9 13 1016.8 1016.6 -
20/09:00am 23.9 20.3 8.3 37 8.3 S 17 22 9 12 1016.8 1016.6 -
20/08:30am 22.9 18.8 8.6 40 7.6 S 20 24 11 13 1016.6 1016.4 -
20/08:00am 21.4 17.2 9.6 47 6.3 SSW 22 26 12 14 1016.5 1016.3 -
20/07:30am 21.2 17.6 10.7 51 5.8 SSW 20 24 11 13 1016.2 1016.0 -
20/07:00am 20.7 17.6 12.1 58 4.8 SSW 20 24 11 13 1015.9 1015.7 -
20/06:30am 19.9 17.0 12.4 62 4.2 SSW 19 22 10 12 1015.7 1015.5 -
20/06:00am 19.7 15.7 11.7 60 4.4 SSW 24 26 13 14 1015.1 1015.0 -
20/05:30am 19.9 15.5 11.7 59 4.5 SSW 26 28 14 15 1014.9 1014.8 -
20/05:00am 20.0 16.2 12.3 61 4.3 SSW 24 26 13 14 1014.8 1014.7 -
20/04:30am 20.6 16.5 12.6 60 4.5 SSW 26 32 14 17 1014.8 1014.7 -
20/04:00am 20.9 15.7 11.5 55 5.2 SSW 30 35 16 19 1014.7 1014.6 -
20/03:30am 21.2 16.5 12.1 56 5.1 SW 28 35 15 19 1014.8 1014.7 -
20/03:00am 21.2 16.5 12.1 56 5.1 SW 28 35 15 19 1014.7 1014.6 -
20/02:30am 21.5 16.4 11.8 54 5.4 SW 30 35 16 19 1014.7 1014.6 -
20/02:00am 21.7 16.2 12.0 54 5.4 SW 32 39 17 21 1014.7 1014.6 -
20/01:30am 21.9 16.3 12.2 54 5.5 SW 33 41 18 22 1014.8 1014.7 -
20/01:00am 22.2 16.6 12.2 53 5.7 SW 33 41 18 22 1015.0 1014.9 -
20/12:30am 22.5 17.6 13.6 57 5.2 SW 32 39 17 21 1015.0 1014.9 -
20/12:00am 22.6 17.5 13.1 55 5.5 SW 32 39 17 21 1015.1 1015.0 -
 
Date/Time
WST
Temp
°C
App
Temp
°C
Dew
Point
°C
Rel
Hum
%
Delta-T
°C
Wind Press
QNH
hPa
Press
MSL
hPa
Rain since
9am
mm
Dir  Spd
km/h
Gust
km/h
Spd
kts
Gust
kts
19/11:30pm 22.7 18.0 14.3 59 4.9 SW 32 39 17 21 1015.3 1015.2 -
19/11:00pm 22.6 18.6 16.2 67 3.9 SW 32 39 17 21 1015.3 1015.2 -
19/10:30pm 22.4 19.0 17.8 75 2.9 WSW 32 37 17 20 1015.6 1015.4 -
19/10:00pm 22.3 18.9 18.1 77 2.6 WSW 33 39 18 21 1015.5 1015.3 -
19/09:30pm 22.3 19.2 18.3 78 2.5 WSW 32 39 17 21 1015.6 1015.4 -
19/09:00pm 22.4 19.7 18.4 78 2.5 WSW 30 39 16 21 1015.6 1015.4 -
19/08:30pm 22.4 19.2 18.2 77 2.6 WSW 32 39 17 21 1015.5 1015.3 -
19/08:00pm 22.4 18.5 17.8 75 2.9 WSW 35 43 19 23 1015.1 1015.0 -
19/07:30pm 22.4 18.9 17.8 75 2.9 WSW 33 41 18 22 1014.8 1014.7 -
19/07:00pm 22.4 18.2 17.1 72 3.3 WSW 35 43 19 23 1014.3 1014.2 -
19/06:30pm 22.6 17.4 16.6 69 3.7 WSW 39 46 21 25 1014.1 1014.0 -
19/06:00pm 22.6 17.3 16.2 67 3.9 WSW 39 46 21 25 1013.6 1013.5 -
19/05:30pm 23.0 17.5 15.8 64 4.3 WSW 39 48 21 26 1013.6 1013.5 -
19/05:00pm 23.6 17.4 14.9 58 5.2 W 41 48 22 26 1013.3 1013.2 -
19/04:30pm 24.3 19.3 15.0 56 5.6 W 35 43 19 23 1013.4 1013.3 -
19/04:00pm 24.7 20.2 15.3 56 5.7 W 33 43 18 23 1013.6 1013.5 -
19/03:30pm 24.6 20.1 15.0 55 5.8 W 32 39 17 21 1013.7 1013.6 -
19/03:00pm 25.0 20.5 15.0 53 6.0 W 32 39 17 21 1013.8 1013.7 -
19/02:30pm 25.8 21.7 14.9 51 6.6 W 30 37 16 20 1013.9 1013.8 -
19/02:00pm 26.0 21.4 13.5 46 7.4 W 30 35 16 19 1014.2 1014.1 -
19/01:30pm 26.5 23.0 14.6 48 7.1 W 26 32 14 17 1014.5 1014.4 -
19/01:00pm 25.7 21.2 12.5 44 7.6 WSW 28 32 15 17 1014.6 1014.5 -
19/12:30pm 25.1 21.2 13.3 48 6.9 WSW 26 30 14 16 1015.0 1014.9 -
19/12:00pm 24.7 21.8 15.1 55 5.8 WSW 24 30 13 16 1015.5 1015.3 -
19/11:30am 24.2 21.7 15.1 56 5.5 WSW 22 26 12 14 1016.0 1015.8 -
19/11:00am 23.8 21.7 15.3 59 5.1 WSW 20 24 11 13 1016.3 1016.1 -
19/10:30am 23.7 21.7 15.5 60 4.9 WSW 20 24 11 13 1016.5 1016.3 -
19/10:00am 22.9 21.2 16.2 66 4.1 WSW 20 24 11 13 1016.8 1016.6 -
19/09:30am 23.1 21.7 16.6 67 4.0 SW 19 24 10 13 1016.9 1016.7 -
19/09:00am 22.6 21.3 16.9 70 3.5 SW 19 22 10 12 1016.8 1016.6 -
19/08:30am 22.0 20.6 16.5 71 3.3 SW 19 22 10 12 1016.6 1016.4 -
19/08:00am 21.4 20.2 17.0 76 2.7 SW 19 22 10 12 1016.5 1016.3 -
19/07:30am 20.6 19.0 16.6 78 2.4 SW 20 24 11 13 1016.2 1016.0 -
19/07:00am 19.9 17.6 16.7 82 1.9 SW 24 28 13 15 1016.2 1016.0 -
19/06:30am 19.6 16.5 15.7 78 2.3 SW 26 30 14 16 1016.0 1015.8 -
19/06:00am 19.7 16.7 16.9 84 1.7 WSW 28 33 15 18 1015.9 1015.7 -
19/05:30am 20.4 18.8 20.1 98 0.2 SW 28 33 15 18 1015.7 1015.5 -
19/05:00am 21.5 21.7 21.3 99 0.1 WSW 22 28 12 15 1015.7 1015.5 -
19/04:30am 21.4 21.2 21.2 99 0.1 SW 24 30 13 16 1015.3 1015.2 -
19/04:00am 21.4 21.8 20.9 97 0.3 WSW 20 26 11 14 1015.2 1015.1 -
19/03:30am 21.3 21.8 20.8 97 0.3 WSW 19 22 10 12 1015.3 1015.2 -
19/03:00am 21.6 21.2 20.9 96 0.5 WSW 24 28 13 15 1015.3 1015.2 -
19/02:30am 21.7 21.4 20.3 92 0.9 WSW 22 28 12 15 1015.5 1015.3 -
19/02:00am 21.8 21.5 20.3 91 1.0 WSW 22 28 12 15 1015.6 1015.4 -
19/01:30am 21.9 21.2 20.2 90 1.1 WSW 24 30 13 16 1015.7 1015.5 -
19/01:00am 22.0 21.3 20.3 90 1.1 WSW 24 28 13 15 1016.0 1015.8 -
19/12:30am 22.0 21.7 20.3 90 1.1 WSW 22 26 12 14 1016.0 1015.8 -
19/12:00am 21.9 22.1 20.5 92 0.9 WSW 20 24 11 13 1016.3 1016.1 -
 
Date/Time
WST
Temp
°C
App
Temp
°C
Dew
Point
°C
Rel
Hum
%
Delta-T
°C
Wind Press
QNH
hPa
Press
MSL
hPa
Rain since
9am
mm
Dir  Spd
km/h
Gust
km/h
Spd
kts
Gust
kts
18/11:30pm 21.9 22.4 21.1 95 0.5 W 20 24 11 13 1016.4 1016.2 -
18/11:00pm 22.1 22.4 21.6 97 0.3 WSW 22 24 12 13 1016.5 1016.3 -
18/10:30pm 22.0 23.0 21.7 98 0.2 WSW 19 22 10 12 1016.4 1016.2 -
18/10:00pm 22.1 22.9 21.8 98 0.2 WSW 20 24 11 13 1016.3 1016.1 -
18/09:30pm 22.2 23.2 21.7 97 0.3 W 19 20 10 11 1016.3 1016.1 -
18/09:00pm 22.2 23.0 21.4 95 0.5 W 19 20 10 11 1016.1 1015.9 -
18/08:30pm 22.4 23.4 21.0 92 0.9 W 17 20 9 11 1015.9 1015.7 -
18/08:00pm 22.6 22.8 20.5 88 1.4 W 20 22 11 12 1015.6 1015.4 -
18/07:30pm 22.4 22.8 19.9 86 1.6 W 17 19 9 10 1015.2 1015.1 -
18/07:00pm 22.4 23.3 19.2 82 2.0 W 13 15 7 8 1014.7 1014.6 -
18/06:30pm 22.7 23.8 18.9 79 2.4 W 11 13 6 7 1014.4 1014.3 -
18/06:00pm 23.1 23.6 18.4 75 3.0 W 13 15 7 8 1014.1 1014.0 -
18/05:30pm 24.1 26.1 20.0 78 2.7 WNW 9 11 5 6 1013.9 1013.8 -
18/05:00pm 24.4 26.6 20.3 78 2.7 NW 9 13 5 7 1013.6 1013.5 -
18/04:30pm 24.6 26.4 20.3 77 2.8 NNW 11 15 6 8 1013.7 1013.6 -
18/04:00pm 24.6 26.7 20.1 76 2.9 N 9 11 5 6 1013.6 1013.5 -
18/03:30pm 25.3 27.4 20.1 73 3.4 NNE 9 9 5 5 1013.5 1013.4 -
18/03:00pm 24.9 26.9 19.9 74 3.2 N 9 11 5 6 1013.6 1013.5 -
18/02:30pm 25.1 27.3 19.5 71 3.6 NNE 7 9 4 5 1013.9 1013.8 -
18/02:00pm 25.1 27.3 19.5 71 3.6 NE 7 9 4 5 1014.0 1013.9 -
18/01:30pm 25.4 27.7 19.8 71 3.6 NE 7 9 4 5 1014.2 1014.1 -
18/01:00pm 25.0 26.7 19.4 71 3.6 ENE 9 11 5 6 1014.4 1014.3 -
18/12:30pm 25.4 27.4 20.0 72 3.5 E 9 13 5 7 1014.7 1014.6 -
18/12:00pm 25.1 26.6 19.7 72 3.5 E 11 13 6 7 1015.1 1015.0 -
18/11:30am 25.4 27.1 20.2 73 3.4 E 11 15 6 8 1015.7 1015.5 -
18/11:00am 25.2 26.5 20.2 74 3.3 E 13 15 7 8 1016.1 1015.9 -
18/10:30am 25.2 25.8 20.2 74 3.3 E 17 19 9 10 1016.1 1015.9 -
18/10:00am 24.6 24.9 19.7 74 3.2 ESE 17 20 9 11 1016.3 1016.1 -
18/09:30am 24.1 24.8 20.4 80 2.4 ESE 17 19 9 10 1016.2 1016.0 -
18/09:00am 23.6 25.1 22.0 91 1.1 ESE 17 20 9 11 1016.0 1015.8 -
18/08:30am 22.7 25.0 22.7 100 0.0 ESE 15 19 8 10 1015.8 1015.6 -
18/08:00am 21.2 22.7 21.2 100 0.0 SE 15 19 8 10 1015.6 1015.4 -
18/07:30am 20.9 21.4 20.9 100 0.0 SE 19 20 10 11 1015.2 1015.1 -
18/07:00am 20.6 21.8 20.6 100 0.0 SE 15 19 8 10 1014.9 1014.8 -
18/06:30am 20.2 21.2 20.2 100 0.0 SSE 15 17 8 9 1014.6 1014.5 -
18/06:00am 20.4 21.8 20.4 100 0.0 SE 13 15 7 8 1014.2 1014.1 -
18/05:30am 22.0 26.2 21.8 99 0.1 NNW 2 4 1 2 1013.7 1013.6 -
18/05:00am 21.4 23.6 21.2 99 0.1 NW 11 13 6 7 1013.2 1013.1 -
18/04:30am 21.4 23.6 21.2 99 0.1 NNW 11 13 6 7 1013.0 1012.9 -
18/04:00am 21.4 23.6 21.1 98 0.2 NW 11 13 6 7 1012.9 1012.8 -
18/03:30am 21.6 24.0 20.9 96 0.5 NW 9 11 5 6 1012.8 1012.7 -
18/03:00am 21.8 24.7 21.0 95 0.5 NW 7 9 4 5 1013.0 1012.9 -
18/02:30am 21.8 24.2 20.8 94 0.6 NW 9 9 5 5 1013.1 1013.0 -
18/02:00am 21.7 23.9 20.3 92 0.9 NW 9 11 5 6 1013.2 1013.1 -
18/01:30am 22.0 24.1 20.1 89 1.2 NNW 9 11 5 6 1013.3 1013.2 -
18/01:00am 22.5 24.5 20.0 86 1.6 N 9 13 5 7 1013.4 1013.3 -
18/12:30am 22.6 24.5 19.8 84 1.8 N 9 11 5 6 1013.4 1013.3 -
18/12:00am 22.7 24.2 19.7 83 1.9 N 11 13 6 7 1013.5 1013.4 -
 
Date/Time
WST
Temp
°C
App
Temp
°C
Dew
Point
°C
Rel
Hum
%
Delta-T
°C
Wind Press
QNH
hPa
Press
MSL
hPa
Rain since
9am
mm
Dir  Spd
km/h
Gust
km/h
Spd
kts
Gust
kts
17/11:30pm 22.7 24.5 19.5 82 2.0 N 9 11 5 6 1013.6 1013.5 -
17/11:00pm 22.7 24.0 19.3 81 2.2 N 11 13 6 7 1013.7 1013.6 -
17/10:30pm 22.6 23.7 18.8 79 2.4 NNE 11 13 6 7 1013.8 1013.7 -
17/10:00pm 22.5 23.4 18.5 78 2.5 NNE 11 13 6 7 1013.7 1013.6 -
17/09:30pm 22.5 24.0 18.9 80 2.3 NNE 9 11 5 6 1013.8 1013.7 -
17/09:00pm 22.7 23.8 18.9 79 2.4 NE 11 13 6 7 1013.9 1013.8 -
17/08:30pm 22.7 23.4 18.9 79 2.4 NE 13 15 7 8 1013.9 1013.8 -
17/08:00pm 22.6 22.9 18.8 79 2.4 NE 15 17 8 9 1013.6 1013.5 -
17/07:30pm 22.8 23.2 19.0 79 2.4 NE 15 17 8 9 1013.2 1013.1 -
17/07:00pm 22.7 22.9 18.5 77 2.6 NE 15 17 8 9 1012.9 1012.8 -
17/06:30pm 22.8 22.8 18.1 75 2.9 ENE 15 17 8 9 1012.6 1012.5 -
17/06:00pm 23.0 22.5 17.7 72 3.3 NE 17 19 9 10 1012.4 1012.3 -

Other Formats:

Comma delimited format used in spreadsheet applications
http://www.bom.gov.au/fwo/IDW60801/IDW60801.94307.axf

JavaScript Object Notation format (JSON) in row-major order
http://www.bom.gov.au/fwo/IDW60801/IDW60801.94307.json